createdAt,value
2018-06-27T00:01:09.726Z,6.13
2018-06-27T00:03:39.166Z,5.60
2018-06-27T00:06:08.825Z,6.27
2018-06-27T00:08:38.457Z,5.73
2018-06-27T00:11:09.055Z,6.30
2018-06-27T00:13:38.445Z,6.30
2018-06-27T00:16:07.599Z,5.50
2018-06-27T00:18:36.780Z,5.80
2018-06-27T00:21:06.355Z,6.47
2018-06-27T00:23:35.734Z,7.00
2018-06-27T00:26:05.476Z,5.97
2018-06-27T00:28:35.095Z,6.50
2018-06-27T00:31:04.462Z,5.70
2018-06-27T00:33:33.908Z,5.90
2018-06-27T00:36:03.513Z,6.53
2018-06-27T00:38:33.172Z,5.60
2018-06-27T00:41:02.546Z,6.03
2018-06-27T00:43:31.976Z,5.83
2018-06-27T00:46:01.377Z,6.10
2018-06-27T00:48:31.381Z,5.80
2018-06-27T00:51:00.550Z,6.63
2018-06-27T00:53:35.352Z,6.80
2018-06-27T00:56:04.928Z,6.07
2018-06-27T00:58:34.556Z,5.70
2018-06-27T01:01:04.186Z,6.07
2018-06-27T01:03:33.798Z,5.30
2018-06-27T01:06:03.279Z,5.10
2018-06-27T01:08:32.432Z,7.33
2018-06-27T01:11:01.600Z,5.10
2018-06-27T01:13:30.791Z,6.27
2018-06-27T01:15:59.944Z,5.17
2018-06-27T01:18:29.334Z,5.13
2018-06-27T01:20:58.720Z,5.30
2018-06-27T01:23:28.128Z,5.20
2018-06-27T01:25:57.769Z,5.33
2018-06-27T01:28:27.143Z,5.23
2018-06-27T01:30:56.619Z,5.90
2018-06-27T01:33:26.081Z,5.50
2018-06-27T01:35:55.258Z,5.37
2018-06-27T01:38:24.458Z,5.30
2018-06-27T01:40:53.640Z,6.30
2018-06-27T01:43:22.834Z,5.70
2018-06-27T01:45:52.255Z,6.50
2018-06-27T01:48:21.661Z,4.77
2018-06-27T01:50:50.833Z,5.20
2018-06-27T01:53:20.065Z,5.00
2018-06-27T01:55:49.539Z,4.70
2018-06-27T01:58:19.156Z,4.30
2018-06-27T02:00:48.810Z,4.63
2018-06-27T02:03:18.182Z,4.50
2018-06-27T02:05:47.612Z,4.90
2018-06-27T02:08:16.999Z,5.00
2018-06-27T02:10:46.191Z,4.20
2018-06-27T02:13:15.383Z,3.90
2018-06-27T02:15:44.556Z,5.30
2018-06-27T02:18:13.982Z,5.30
2018-06-27T02:20:43.368Z,4.40
2018-06-27T02:23:13.145Z,4.97
2018-06-27T02:25:42.567Z,6.07
2018-06-27T02:28:12.218Z,5.30
2018-06-27T02:30:41.604Z,5.60
2018-06-27T02:33:15.150Z,5.67
2018-06-27T02:35:44.329Z,6.30
2018-06-27T02:38:13.759Z,5.83
2018-06-27T02:40:43.133Z,6.33
2018-06-27T02:43:12.565Z,5.73
2018-06-27T02:45:41.944Z,7.20
2018-06-27T02:48:11.358Z,5.90
2018-06-27T02:50:41.187Z,6.33
2018-06-27T02:53:10.583Z,5.70
2018-06-27T02:55:39.996Z,6.57
2018-06-27T02:58:09.384Z,6.77
2018-06-27T03:00:38.580Z,6.80
2018-06-27T03:03:07.748Z,6.67
2018-06-27T03:05:36.934Z,7.00
2018-06-27T03:08:06.105Z,6.30
2018-06-27T03:10:35.542Z,6.67
2018-06-27T03:13:04.941Z,5.43
2018-06-27T03:15:34.367Z,5.90
2018-06-27T03:18:04.026Z,6.83
2018-06-27T03:20:33.636Z,6.13
2018-06-27T03:23:03.265Z,6.00
2018-06-27T03:25:32.640Z,5.90
2018-06-27T03:28:02.150Z,6.23
2018-06-27T03:30:31.525Z,5.80
2018-06-27T03:33:00.808Z,5.87
2018-06-27T03:35:30.040Z,5.10
2018-06-27T03:37:59.210Z,5.53
2018-06-27T03:40:28.392Z,4.93
2018-06-27T03:42:57.608Z,4.50
2018-06-27T03:45:26.772Z,5.33
2018-06-27T03:47:55.932Z,5.00
2018-06-27T03:50:25.144Z,6.23
2018-06-27T03:52:54.542Z,5.43
2018-06-27T03:55:23.933Z,4.57
2018-06-27T03:57:53.104Z,5.17
2018-06-27T04:00:22.242Z,5.40
2018-06-27T04:02:51.398Z,5.60
2018-06-27T04:05:20.602Z,4.87
2018-06-27T04:07:49.760Z,5.17
2018-06-27T04:10:18.956Z,5.60
2018-06-27T04:12:48.263Z,5.80
2018-06-27T04:15:17.422Z,5.93
2018-06-27T04:17:46.592Z,6.17
2018-06-27T04:20:15.793Z,7.37
2018-06-27T04:22:45.186Z,7.37
2018-06-27T04:25:14.576Z,7.80
2018-06-27T04:27:44.020Z,7.93
2018-06-27T04:30:13.793Z,8.13
2018-06-27T04:32:43.312Z,8.77
2018-06-27T04:35:12.696Z,8.70
2018-06-27T04:37:42.136Z,9.27
2018-06-27T04:40:11.768Z,9.87
2018-06-27T04:42:41.398Z,8.50
2018-06-27T04:45:11.098Z,8.83
2018-06-27T04:47:40.603Z,9.37
2018-06-27T04:50:10.148Z,8.20
2018-06-27T04:52:39.522Z,8.17
2018-06-27T04:55:08.702Z,8.00
2018-06-27T04:57:37.860Z,7.90
2018-06-27T05:00:07.150Z,7.13
2018-06-27T05:02:36.329Z,8.60
2018-06-27T05:05:05.738Z,8.87
2018-06-27T05:07:34.971Z,8.80
2018-06-27T05:10:04.372Z,8.07
2018-06-27T05:12:33.795Z,8.67
2018-06-27T05:15:02.990Z,9.17
2018-06-27T05:17:32.234Z,8.83
2018-06-27T05:20:01.424Z,10.90
2018-06-27T05:22:30.602Z,9.40
2018-06-27T05:25:00.035Z,9.33
2018-06-27T05:27:29.577Z,9.73
2018-06-27T05:29:58.968Z,8.63
2018-06-27T05:32:28.453Z,10.07
2018-06-27T05:34:57.907Z,10.47
2018-06-27T05:37:27.532Z,10.00
2018-06-27T05:39:57.193Z,11.53
2018-06-27T05:42:26.624Z,13.23
2018-06-27T05:44:56.066Z,11.10
2018-06-27T05:47:25.478Z,11.17
2018-06-27T05:49:54.760Z,12.43
2018-06-27T05:52:23.948Z,13.63
2018-06-27T05:54:58.710Z,12.67
2018-06-27T05:57:28.126Z,12.80
2018-06-27T05:59:57.896Z,14.30
2018-06-27T06:02:27.402Z,12.93
2018-06-27T06:04:56.648Z,11.20
2018-06-27T06:07:26.541Z,12.40
2018-06-27T06:09:56.010Z,11.60
2018-06-27T06:12:25.522Z,12.13
2018-06-27T06:14:54.980Z,12.00
2018-06-27T06:17:24.576Z,12.13
2018-06-27T06:19:54.086Z,13.07
2018-06-27T06:22:23.320Z,11.60
2018-06-27T06:24:52.529Z,11.47
2018-06-27T06:27:21.969Z,11.80
2018-06-27T06:29:51.672Z,11.93
2018-06-27T06:32:21.342Z,11.93
2018-06-27T06:34:50.997Z,10.90
2018-06-27T06:37:20.638Z,12.07
2018-06-27T06:39:50.110Z,12.60
2018-06-27T06:42:19.292Z,11.97
2018-06-27T06:44:48.719Z,11.20
2018-06-27T06:47:18.136Z,11.23
2018-06-27T06:49:47.640Z,10.97
2018-06-27T06:52:17.086Z,10.27
2018-06-27T06:54:46.258Z,11.00
2018-06-27T06:57:15.496Z,11.50
2018-06-27T06:59:45.034Z,11.00
2018-06-27T07:02:14.431Z,10.60
2018-06-27T07:04:43.626Z,10.53
2018-06-27T07:07:12.972Z,12.43
2018-06-27T07:09:42.224Z,11.30
2018-06-27T07:12:11.452Z,10.17
2018-06-27T07:14:40.991Z,8.67
2018-06-27T07:17:10.399Z,9.27
2018-06-27T07:19:39.658Z,10.17
2018-06-27T07:22:08.868Z,11.20
2018-06-27T07:24:38.040Z,11.83
2018-06-27T07:27:07.224Z,10.40
2018-06-27T07:29:36.668Z,10.90
2018-06-27T07:32:06.321Z,11.17
2018-06-27T07:34:35.706Z,10.90
2018-06-27T07:37:04.906Z,11.70
2018-06-27T07:39:34.364Z,11.23
2018-06-27T07:42:04.029Z,10.63
2018-06-27T07:44:33.471Z,8.80
2018-06-27T07:47:02.645Z,10.07
2018-06-27T07:49:32.120Z,9.37
2018-06-27T07:52:01.763Z,9.60
2018-06-27T07:54:35.398Z,10.50
2018-06-27T07:57:04.945Z,9.93
2018-06-27T07:59:34.607Z,9.77
2018-06-27T08:02:04.285Z,10.77
2018-06-27T08:04:33.699Z,10.80
2018-06-27T08:07:02.913Z,9.87
2018-06-27T08:09:32.340Z,9.80
2018-06-27T08:12:02.019Z,9.17
2018-06-27T08:14:31.402Z,10.57
2018-06-27T08:17:00.892Z,9.57
2018-06-27T08:19:30.334Z,10.07
2018-06-27T08:21:59.517Z,10.00
2018-06-27T08:24:28.685Z,10.13
2018-06-27T08:26:57.881Z,9.83
2018-06-27T08:29:27.396Z,10.60
2018-06-27T08:31:57.047Z,9.93
2018-06-27T08:34:26.428Z,10.03
2018-06-27T08:36:55.636Z,11.27
2018-06-27T08:39:25.083Z,11.00
2018-06-27T08:41:55.008Z,9.90
2018-06-27T08:44:24.747Z,10.50
2018-06-27T08:46:54.209Z,10.00
2018-06-27T08:49:23.670Z,9.60
2018-06-27T08:51:53.116Z,9.97
2018-06-27T08:54:22.308Z,9.20
2018-06-27T08:56:51.942Z,9.93
2018-06-27T08:59:21.144Z,9.00
2018-06-27T09:01:50.353Z,9.60
2018-06-27T09:04:19.556Z,9.53
2018-06-27T09:06:48.803Z,9.17
2018-06-27T09:09:18.258Z,8.60
2018-06-27T09:11:47.643Z,8.90
2018-06-27T09:14:16.806Z,10.10
2018-06-27T09:16:46.120Z,8.87
2018-06-27T09:19:15.358Z,8.77
2018-06-27T09:21:44.556Z,9.07
2018-06-27T09:24:13.712Z,9.50
2018-06-27T09:26:43.381Z,9.60
2018-06-27T09:29:12.770Z,8.67
2018-06-27T09:31:42.646Z,10.10
2018-06-27T09:34:12.139Z,8.67
2018-06-27T09:36:41.554Z,9.03
2018-06-27T09:39:11.448Z,9.33
2018-06-27T09:41:40.832Z,8.80
2018-06-27T09:44:10.032Z,8.73
2018-06-27T09:46:39.204Z,8.60
2018-06-27T09:49:08.791Z,8.00
2018-06-27T09:51:38.159Z,6.20
2018-06-27T09:54:07.357Z,7.47
2018-06-27T09:56:36.845Z,8.40
2018-06-27T09:59:06.241Z,8.07
2018-06-27T10:01:35.651Z,7.97
2018-06-27T10:04:05.209Z,9.07
2018-06-27T10:06:34.414Z,7.10
2018-06-27T10:09:06.034Z,6.37
2018-06-27T10:11:35.748Z,6.57
2018-06-27T10:14:05.181Z,6.50
2018-06-27T10:16:34.447Z,5.93
2018-06-27T10:19:03.987Z,7.10
2018-06-27T10:21:33.462Z,8.43
2018-06-27T10:24:02.710Z,6.20
2018-06-27T10:26:31.928Z,7.23
2018-06-27T10:29:01.424Z,6.03
2018-06-27T10:31:30.827Z,7.77
2018-06-27T10:34:00.097Z,6.70
2018-06-27T10:36:29.308Z,6.13
2018-06-27T10:38:58.531Z,6.80
2018-06-27T10:41:27.764Z,5.70
2018-06-27T10:43:56.950Z,5.63
2018-06-27T10:46:26.173Z,6.07
2018-06-27T10:48:55.868Z,6.47
2018-06-27T10:51:25.536Z,6.23
2018-06-27T10:53:55.221Z,5.57
2018-06-27T10:56:24.630Z,6.73
2018-06-27T10:58:53.966Z,5.80
2018-06-27T11:01:23.426Z,5.20
2018-06-27T11:03:52.808Z,6.20
2018-06-27T11:06:22.284Z,7.00
2018-06-27T11:08:51.726Z,5.37
2018-06-27T11:11:20.941Z,5.80
2018-06-27T11:13:50.112Z,6.10
2018-06-27T11:16:19.526Z,4.50
2018-06-27T11:18:48.982Z,4.10
2018-06-27T11:21:18.184Z,4.60
2018-06-27T11:23:47.638Z,4.50
2018-06-27T11:26:17.070Z,4.37
2018-06-27T11:28:46.342Z,4.37
2018-06-27T11:31:15.520Z,4.10
2018-06-27T11:33:44.936Z,4.13
2018-06-27T11:36:14.106Z,4.43
2018-06-27T11:38:43.452Z,4.63
2018-06-27T11:41:12.620Z,3.63
2018-06-27T11:43:42.088Z,3.90
2018-06-27T11:46:11.490Z,3.77
2018-06-27T11:48:40.902Z,3.50
2018-06-27T11:51:10.314Z,4.77
2018-06-27T11:53:39.494Z,3.70
2018-06-27T11:56:08.949Z,4.10
2018-06-27T11:58:38.458Z,4.50
2018-06-27T12:01:07.932Z,4.77
2018-06-27T12:03:37.322Z,6.13
2018-06-27T12:06:06.499Z,5.10
2018-06-27T12:08:35.746Z,5.70
2018-06-27T12:11:05.187Z,5.50
2018-06-27T12:13:34.576Z,5.67
2018-06-27T12:16:03.788Z,5.23
2018-06-27T12:18:32.926Z,5.30
2018-06-27T12:21:02.210Z,4.50
2018-06-27T12:23:31.428Z,5.37
2018-06-27T12:26:01.422Z,4.53
2018-06-27T12:28:30.820Z,3.30
2018-06-27T12:31:00.400Z,4.53
2018-06-27T12:33:29.781Z,3.93
2018-06-27T12:35:58.946Z,4.70
2018-06-27T12:38:28.392Z,3.50
2018-06-27T12:40:57.834Z,4.27
2018-06-27T12:43:27.041Z,4.80
2018-06-27T12:45:56.502Z,4.00
2018-06-27T12:48:26.131Z,4.70
2018-06-27T12:50:55.540Z,4.80
2018-06-27T12:53:25.240Z,5.10
2018-06-27T12:55:54.900Z,4.80
2018-06-27T12:58:24.428Z,4.43
2018-06-27T13:00:53.584Z,4.40
2018-06-27T13:03:23.071Z,5.17
2018-06-27T13:05:52.740Z,4.90
2018-06-27T13:08:22.241Z,4.77
2018-06-27T13:10:53.464Z,4.93
2018-06-27T13:13:22.691Z,4.47
2018-06-27T13:15:52.177Z,5.37
2018-06-27T13:18:21.688Z,4.50
2018-06-27T13:20:50.922Z,5.43
2018-06-27T13:23:20.391Z,6.10
2018-06-27T13:25:50.035Z,4.93
2018-06-27T13:28:19.690Z,5.47
2018-06-27T13:30:49.190Z,6.23
2018-06-27T13:33:18.508Z,5.63
2018-06-27T13:35:47.907Z,5.53
2018-06-27T13:38:17.294Z,5.87
2018-06-27T13:40:46.521Z,7.47
2018-06-27T13:43:16.004Z,4.87
2018-06-27T13:45:45.320Z,5.70
2018-06-27T13:48:14.478Z,5.40
2018-06-27T13:50:43.674Z,7.33
2018-06-27T13:53:13.152Z,6.70
2018-06-27T13:55:42.592Z,5.30
2018-06-27T13:58:11.769Z,6.07
2018-06-27T14:00:40.952Z,6.17
2018-06-27T14:03:10.416Z,6.10
2018-06-27T14:05:40.068Z,5.37
2018-06-27T14:08:09.821Z,6.60
2018-06-27T14:10:39.234Z,6.10
2018-06-27T14:13:08.435Z,5.60
2018-06-27T14:15:37.759Z,6.03
2018-06-27T14:18:07.094Z,5.30
2018-06-27T14:20:36.625Z,5.73
2018-06-27T14:23:06.008Z,4.00
2018-06-27T14:25:35.427Z,6.60
2018-06-27T14:28:04.814Z,5.17
2018-06-27T14:30:34.330Z,4.93
2018-06-27T14:33:03.946Z,6.17
2018-06-27T14:35:33.596Z,6.50
2018-06-27T14:38:02.974Z,5.80
2018-06-27T14:40:32.201Z,4.87
2018-06-27T14:43:01.383Z,5.33
2018-06-27T14:45:30.554Z,4.83
2018-06-27T14:48:00.042Z,5.87
2018-06-27T14:50:29.400Z,5.00
2018-06-27T14:52:58.641Z,5.70
2018-06-27T14:55:27.848Z,4.57
2018-06-27T14:57:57.250Z,7.13
2018-06-27T15:00:26.644Z,6.13
2018-06-27T15:02:56.107Z,5.33
2018-06-27T15:05:25.516Z,6.97
2018-06-27T15:07:54.942Z,5.87
2018-06-27T15:10:24.610Z,6.17
2018-06-27T15:12:54.017Z,6.50
2018-06-27T15:15:23.463Z,5.43
2018-06-27T15:17:52.906Z,5.40
2018-06-27T15:20:22.416Z,5.80
2018-06-27T15:22:52.538Z,6.93
2018-06-27T15:25:22.016Z,6.13
2018-06-27T15:27:51.418Z,5.37
2018-06-27T15:30:20.645Z,5.30
2018-06-27T15:32:50.066Z,5.37
2018-06-27T15:35:19.914Z,5.80
2018-06-27T15:37:49.176Z,5.43
2018-06-27T15:40:18.642Z,5.80
2018-06-27T15:42:48.407Z,5.40
2018-06-27T15:45:18.120Z,4.43
2018-06-27T15:47:47.508Z,5.00
2018-06-27T15:50:17.026Z,5.63
2018-06-27T15:52:46.473Z,3.97
2018-06-27T15:55:15.696Z,4.47
2018-06-27T15:57:45.111Z,4.93
2018-06-27T16:00:14.522Z,5.23
2018-06-27T16:02:43.766Z,5.03
2018-06-27T16:05:12.932Z,5.00
2018-06-27T16:07:42.150Z,4.43
2018-06-27T16:10:11.598Z,5.00
2018-06-27T16:12:41.380Z,4.90
2018-06-27T16:15:12.982Z,5.73
2018-06-27T16:17:42.162Z,4.60
2018-06-27T16:20:11.369Z,4.50
2018-06-27T16:22:40.672Z,5.10
2018-06-27T16:25:10.130Z,5.50
2018-06-27T16:27:39.758Z,4.70
2018-06-27T16:30:09.416Z,4.87
2018-06-27T16:32:39.044Z,4.37
2018-06-27T16:35:08.424Z,4.13
2018-06-27T16:37:37.622Z,5.10
2018-06-27T16:40:06.820Z,3.73
2018-06-27T16:42:37.040Z,4.60
2018-06-27T16:45:06.513Z,4.27
2018-06-27T16:47:35.823Z,3.73
2018-06-27T16:50:05.407Z,3.90
2018-06-27T16:52:34.690Z,4.37
2018-06-27T16:55:03.880Z,4.13
2018-06-27T16:57:33.210Z,3.87
2018-06-27T17:00:02.741Z,4.50
2018-06-27T17:02:32.199Z,5.07
2018-06-27T17:05:01.379Z,4.33
2018-06-27T17:07:30.671Z,4.30
2018-06-27T17:10:00.104Z,4.03
2018-06-27T17:12:29.378Z,3.70
2018-06-27T17:14:58.604Z,3.67
2018-06-27T17:17:28.012Z,4.00
2018-06-27T17:19:57.477Z,4.30
2018-06-27T17:22:26.691Z,3.43
2018-06-27T17:24:56.115Z,3.63
2018-06-27T17:27:25.748Z,3.33
2018-06-27T17:29:55.141Z,3.70
2018-06-27T17:32:24.345Z,3.53
2018-06-27T17:34:53.551Z,3.50
2018-06-27T17:37:22.749Z,2.77
2018-06-27T17:39:51.927Z,2.90
2018-06-27T17:42:21.116Z,3.00
2018-06-27T17:44:50.349Z,3.00
2018-06-27T17:47:19.507Z,2.83
2018-06-27T17:49:48.805Z,2.93
2018-06-27T17:52:18.098Z,3.07
2018-06-27T17:54:47.277Z,2.60
2018-06-27T17:57:16.470Z,2.80
2018-06-27T17:59:45.744Z,2.80
2018-06-27T18:02:14.924Z,2.60
2018-06-27T18:04:44.149Z,2.80
2018-06-27T18:07:13.326Z,2.80
2018-06-27T18:09:42.625Z,3.00
2018-06-27T18:12:11.838Z,2.57
2018-06-27T18:14:41.040Z,3.40
2018-06-27T18:17:10.238Z,3.00
2018-06-27T18:19:39.540Z,2.20
2018-06-27T18:22:08.986Z,3.63
2018-06-27T18:24:38.640Z,3.37
2018-06-27T18:27:08.080Z,3.37
2018-06-27T18:29:37.554Z,3.87
2018-06-27T18:32:07.030Z,4.70
2018-06-27T18:34:36.448Z,3.30
2018-06-27T18:37:06.172Z,3.50
2018-06-27T18:39:35.866Z,4.17
2018-06-27T18:42:05.614Z,3.97
2018-06-27T18:44:34.789Z,3.77
2018-06-27T18:47:04.454Z,4.53
2018-06-27T18:49:34.212Z,5.10
2018-06-27T18:52:03.636Z,4.50
2018-06-27T18:54:32.837Z,4.40
2018-06-27T18:57:02.268Z,4.77
2018-06-27T18:59:31.685Z,4.70
2018-06-27T19:02:00.881Z,4.57
2018-06-27T19:04:30.224Z,5.70
2018-06-27T19:06:59.412Z,5.90
2018-06-27T19:09:28.692Z,4.77
2018-06-27T19:11:57.917Z,5.60
2018-06-27T19:14:27.066Z,5.30
2018-06-27T19:16:56.613Z,5.17
2018-06-27T19:19:26.074Z,5.40
2018-06-27T19:21:55.268Z,4.50
2018-06-27T19:24:24.432Z,5.10
2018-06-27T19:26:53.650Z,4.20
2018-06-27T19:29:23.164Z,4.70
2018-06-27T19:31:52.932Z,5.20
2018-06-27T19:34:22.396Z,5.10
2018-06-27T19:36:51.626Z,5.40
2018-06-27T19:39:21.099Z,4.13
2018-06-27T19:41:50.530Z,4.67
2018-06-27T19:44:19.707Z,4.70
2018-06-27T19:46:49.273Z,5.30
2018-06-27T19:49:18.693Z,4.80
2018-06-27T19:51:48.010Z,4.80
2018-06-27T19:54:28.974Z,5.63
2018-06-27T19:56:58.544Z,5.37
2018-06-27T19:59:27.885Z,5.40
2018-06-27T20:01:57.397Z,5.10
2018-06-27T20:04:26.799Z,5.67
2018-06-27T20:06:56.238Z,4.37
2018-06-27T20:09:25.914Z,5.80
2018-06-27T20:11:55.405Z,5.03
2018-06-27T20:14:24.602Z,5.90
2018-06-27T20:16:53.800Z,5.07
2018-06-27T20:19:23.205Z,4.77
2018-06-27T20:21:52.895Z,6.07
2018-06-27T20:24:22.289Z,5.00
2018-06-27T20:26:51.497Z,4.90
2018-06-27T20:29:20.969Z,5.17
2018-06-27T20:31:50.495Z,5.57
2018-06-27T20:34:19.707Z,6.07
2018-06-27T20:36:49.199Z,5.83
2018-06-27T20:39:18.885Z,6.07
2018-06-27T20:41:48.397Z,5.10
2018-06-27T20:44:17.607Z,6.80
2018-06-27T20:46:46.805Z,7.03
2018-06-27T20:49:16.006Z,6.33
2018-06-27T20:51:45.207Z,6.97
2018-06-27T20:54:14.396Z,6.00
2018-06-27T20:56:43.885Z,6.80
2018-06-27T20:59:13.325Z,6.40
2018-06-27T21:01:42.855Z,6.07
2018-06-27T21:04:12.257Z,7.10
2018-06-27T21:06:41.933Z,7.30
2018-06-27T21:09:11.965Z,6.70
2018-06-27T21:11:41.201Z,6.13
2018-06-27T21:14:10.383Z,6.83
2018-06-27T21:16:39.811Z,6.10
2018-06-27T21:19:09.238Z,7.00
2018-06-27T21:21:38.695Z,6.47
2018-06-27T21:24:08.359Z,6.40
2018-06-27T21:26:37.769Z,5.87
2018-06-27T21:29:06.971Z,6.90
2018-06-27T21:31:36.159Z,6.63
2018-06-27T21:34:05.339Z,7.07
2018-06-27T21:36:34.557Z,6.80
2018-06-27T21:39:05.929Z,6.07
2018-06-27T21:41:35.328Z,7.23
2018-06-27T21:44:04.655Z,6.57
2018-06-27T21:46:34.159Z,7.33
2018-06-27T21:49:03.880Z,6.83
2018-06-27T21:51:33.384Z,7.10
2018-06-27T21:54:02.569Z,6.70
2018-06-27T21:56:31.766Z,6.77
2018-06-27T21:59:00.960Z,7.10
2018-06-27T22:01:30.163Z,7.47
2018-06-27T22:03:59.353Z,7.70
2018-06-27T22:06:28.571Z,7.17
2018-06-27T22:08:58.573Z,7.30
2018-06-27T22:11:28.201Z,7.60
2018-06-27T22:13:57.623Z,7.37
2018-06-27T22:16:26.805Z,7.60
2018-06-27T22:18:56.335Z,7.10
2018-06-27T22:21:25.773Z,7.20
2018-06-27T22:23:55.147Z,7.67
2018-06-27T22:26:24.375Z,7.37
2018-06-27T22:28:53.817Z,6.90
2018-06-27T22:31:23.291Z,7.70
2018-06-27T22:33:52.462Z,6.10
2018-06-27T22:36:21.674Z,6.97
2018-06-27T22:38:51.096Z,7.37
2018-06-27T22:41:20.525Z,7.47
2018-06-27T22:43:49.977Z,8.13
2018-06-27T22:46:19.397Z,8.13
2018-06-27T22:48:48.594Z,8.50
2018-06-27T22:51:17.794Z,7.67
2018-06-27T22:53:47.211Z,8.37
2018-06-27T22:56:16.616Z,9.00
2018-06-27T22:58:45.856Z,8.23
2018-06-27T23:01:15.323Z,8.53
2018-06-27T23:03:44.714Z,9.23
2018-06-27T23:06:14.120Z,8.50
2018-06-27T23:08:43.527Z,7.67
2018-06-27T23:11:13.462Z,8.00
2018-06-27T23:13:42.666Z,8.67
2018-06-27T23:30:29.655Z,7.77
2018-06-27T23:32:59.064Z,8.10
2018-06-27T23:35:28.409Z,8.80
2018-06-27T23:37:57.629Z,8.30
2018-06-27T23:40:27.111Z,8.43
2018-06-27T23:42:56.596Z,8.37
2018-06-27T23:45:26.033Z,8.70
2018-06-27T23:47:55.442Z,7.80
2018-06-27T23:50:24.619Z,8.73
2018-06-27T23:52:53.932Z,9.20
2018-06-27T23:55:23.357Z,8.90
2018-06-27T23:57:52.984Z,7.93
